createdAt,value
2023-08-17T00:01:45.822Z,11.47
2023-08-17T00:04:13.929Z,7.73
2023-08-17T00:06:42.216Z,16.43
2023-08-17T00:09:10.872Z,11.60
2023-08-17T00:11:38.975Z,11.93
2023-08-17T00:14:07.472Z,14.53
2023-08-17T00:16:36.920Z,10.73
2023-08-17T00:19:05.217Z,11.07
2023-08-17T00:21:33.712Z,9.53
2023-08-17T00:24:01.751Z,14.97
2023-08-17T00:26:29.792Z,9.50
2023-08-17T00:28:57.887Z,9.20
2023-08-17T00:31:26.008Z,9.40
2023-08-17T00:33:55.398Z,9.63
2023-08-17T00:36:23.509Z,10.80
2023-08-17T00:38:51.600Z,10.17
2023-08-17T00:41:19.659Z,15.17
2023-08-17T00:43:47.740Z,9.50
2023-08-17T00:46:16.371Z,10.17
2023-08-17T00:48:45.576Z,10.43
2023-08-17T00:51:15.384Z,9.90
2023-08-17T00:53:43.630Z,9.77
2023-08-17T00:56:11.663Z,9.00
2023-08-17T00:58:39.805Z,9.50
2023-08-17T01:01:07.849Z,14.00
2023-08-17T01:03:36.864Z,13.10
2023-08-17T01:06:05.757Z,10.90
2023-08-17T01:08:35.497Z,11.53
2023-08-17T01:11:09.566Z,12.80
2023-08-17T01:13:44.712Z,12.00
2023-08-17T01:16:17.985Z,10.70
2023-08-17T01:18:48.286Z,21.90
2023-08-17T01:21:19.113Z,12.97
2023-08-17T01:23:50.951Z,10.10
2023-08-17T01:26:19.045Z,8.37
2023-08-17T01:28:48.850Z,12.37
2023-08-17T01:31:23.458Z,9.73
2023-08-17T01:33:56.514Z,11.50
2023-08-17T01:36:28.660Z,8.93
2023-08-17T01:38:59.293Z,9.60
2023-08-17T01:41:29.043Z,10.77
2023-08-17T01:43:58.865Z,12.50
2023-08-17T01:46:32.635Z,12.33
2023-08-17T01:49:00.748Z,15.83
2023-08-17T01:51:29.029Z,11.67
2023-08-17T01:53:58.460Z,15.83
2023-08-17T01:56:26.519Z,13.50
2023-08-17T01:58:54.563Z,18.93
2023-08-17T02:01:22.547Z,15.50
2023-08-17T02:03:50.579Z,9.30
2023-08-17T02:06:18.646Z,14.33
2023-08-17T02:08:46.761Z,18.13
2023-08-17T02:11:16.160Z,14.30
2023-08-17T02:13:44.382Z,11.30
2023-08-17T02:16:12.465Z,15.23
2023-08-17T02:18:40.529Z,10.63
2023-08-17T02:21:08.639Z,19.53
2023-08-17T02:23:36.931Z,14.57
2023-08-17T02:26:05.014Z,11.30
2023-08-17T02:28:34.434Z,12.63
2023-08-17T02:31:02.637Z,14.50
2023-08-17T02:33:30.772Z,14.77
2023-08-17T02:35:58.872Z,22.07
2023-08-17T02:38:26.957Z,17.03
2023-08-17T02:40:55.013Z,12.33
2023-08-17T02:43:23.124Z,15.23
2023-08-17T02:45:52.556Z,11.13
2023-08-17T02:48:20.927Z,12.27
2023-08-17T02:50:49.207Z,15.80
2023-08-17T02:53:17.293Z,15.03
2023-08-17T02:55:45.348Z,10.97
2023-08-17T02:58:13.393Z,15.70
2023-08-17T03:00:41.422Z,11.23
2023-08-17T03:03:11.020Z,16.23
2023-08-17T03:05:39.195Z,14.30
2023-08-17T03:08:07.744Z,13.40
2023-08-17T03:10:35.964Z,18.50
2023-08-17T03:13:04.108Z,16.03
2023-08-17T03:15:32.246Z,14.23
2023-08-17T03:18:00.347Z,15.20
2023-08-17T03:20:29.734Z,11.70
2023-08-17T03:22:57.825Z,16.60
2023-08-17T03:25:25.964Z,11.53
2023-08-17T03:27:54.027Z,13.60
2023-08-17T03:30:22.055Z,9.70
2023-08-17T03:32:50.119Z,8.40
2023-08-17T03:35:19.468Z,9.87
2023-08-17T03:37:48.862Z,10.47
2023-08-17T03:40:16.995Z,11.23
2023-08-17T03:42:45.083Z,12.80
2023-08-17T03:45:13.118Z,10.20
2023-08-17T03:47:41.161Z,18.40
2023-08-17T03:50:11.117Z,12.60
2023-08-17T03:52:39.168Z,11.83
2023-08-17T03:55:09.401Z,10.97
2023-08-17T03:57:39.383Z,25.10
2023-08-17T04:00:11.412Z,19.07
2023-08-17T04:02:39.702Z,22.70
2023-08-17T04:05:08.616Z,23.87
2023-08-17T04:07:36.728Z,16.17
2023-08-17T04:10:06.327Z,15.43
2023-08-17T04:12:35.896Z,18.50
2023-08-17T04:15:04.077Z,27.23
2023-08-17T04:17:32.283Z,18.70
2023-08-17T04:20:00.500Z,35.53
2023-08-17T04:22:28.556Z,20.60
2023-08-17T04:24:56.640Z,16.40
2023-08-17T04:27:24.897Z,17.20
2023-08-17T04:29:54.532Z,26.67
2023-08-17T04:32:22.599Z,26.53
2023-08-17T04:34:52.319Z,24.73
2023-08-17T04:37:21.952Z,22.77
2023-08-17T04:39:50.334Z,22.83
2023-08-17T04:42:18.502Z,21.30
2023-08-17T04:44:46.561Z,21.90
2023-08-17T04:47:15.985Z,30.30
2023-08-17T04:49:44.083Z,29.10
2023-08-17T04:52:12.135Z,33.07
2023-08-17T04:54:40.197Z,28.47
2023-08-17T04:57:08.227Z,32.30
2023-08-17T04:59:36.324Z,31.27
2023-08-17T05:02:04.410Z,30.70
2023-08-17T05:04:33.801Z,36.40
2023-08-17T05:07:01.877Z,32.20
2023-08-17T05:09:30.081Z,28.93
2023-08-17T05:11:58.142Z,30.10
2023-08-17T05:14:26.181Z,29.73
2023-08-17T05:16:54.246Z,26.50
2023-08-17T05:19:22.340Z,25.60
2023-08-17T05:21:52.420Z,24.20
2023-08-17T05:24:21.597Z,33.00
2023-08-17T05:26:49.782Z,31.47
2023-08-17T05:29:17.874Z,25.77
2023-08-17T05:31:46.043Z,26.83
2023-08-17T05:34:14.366Z,30.97
2023-08-17T05:36:42.455Z,25.13
2023-08-17T05:39:11.892Z,28.13
2023-08-17T05:41:39.994Z,22.83
2023-08-17T05:44:08.855Z,30.20
2023-08-17T05:46:36.954Z,22.30
2023-08-17T05:49:06.731Z,27.67
2023-08-17T05:51:34.942Z,28.10
2023-08-17T05:54:03.017Z,21.53
2023-08-17T05:56:32.430Z,18.93
2023-08-17T05:59:00.580Z,25.03
2023-08-17T06:01:28.692Z,26.10
2023-08-17T06:03:56.837Z,24.50
2023-08-17T06:06:25.075Z,25.40
2023-08-17T06:08:53.141Z,22.80
2023-08-17T06:11:21.276Z,22.83
2023-08-17T06:13:50.687Z,21.83
2023-08-17T06:16:18.739Z,21.60
2023-08-17T06:18:47.063Z,19.53
2023-08-17T06:21:15.084Z,20.13
2023-08-17T06:23:43.096Z,15.37
2023-08-17T06:26:11.133Z,11.40
2023-08-17T06:28:39.172Z,20.63
2023-08-17T06:31:09.033Z,13.83
2023-08-17T06:33:37.186Z,10.00
2023-08-17T06:36:05.713Z,10.27
2023-08-17T06:38:33.731Z,11.80
2023-08-17T06:41:01.728Z,10.33
2023-08-17T06:43:29.804Z,10.87
2023-08-17T06:46:00.299Z,10.53
2023-08-17T06:48:29.837Z,7.60
2023-08-17T06:50:57.873Z,7.00
2023-08-17T06:53:25.987Z,8.70
2023-08-17T06:55:54.067Z,9.07
2023-08-17T06:58:22.109Z,7.20
2023-08-17T07:00:50.230Z,7.97
2023-08-17T07:03:18.411Z,8.90
2023-08-17T07:05:47.923Z,7.63
2023-08-17T07:08:15.945Z,9.53
2023-08-17T07:10:43.950Z,6.40
2023-08-17T07:13:11.995Z,7.13
2023-08-17T07:15:40.138Z,10.03
2023-08-17T07:18:08.270Z,9.13
2023-08-17T07:20:36.280Z,8.20
2023-08-17T07:23:05.988Z,9.80
2023-08-17T07:25:34.217Z,7.27
2023-08-17T07:28:02.392Z,8.20
2023-08-17T07:30:30.606Z,8.50
2023-08-17T07:32:58.784Z,12.10
2023-08-17T07:35:26.896Z,9.03
2023-08-17T07:38:07.309Z,8.20
2023-08-17T07:40:38.603Z,9.87
2023-08-17T07:43:06.679Z,8.17
2023-08-17T07:45:34.996Z,8.87
2023-08-17T07:48:03.144Z,8.27
2023-08-17T07:50:31.241Z,9.53
2023-08-17T07:52:59.299Z,8.93
2023-08-17T07:55:28.672Z,8.77
2023-08-17T07:57:58.099Z,10.17
2023-08-17T08:00:26.143Z,11.63
2023-08-17T08:02:54.289Z,12.53
2023-08-17T08:05:22.436Z,7.27
2023-08-17T08:07:50.513Z,9.03
2023-08-17T08:10:18.676Z,6.70
2023-08-17T08:12:46.720Z,10.27
2023-08-17T08:15:16.362Z,10.80
2023-08-17T08:17:44.443Z,9.63
2023-08-17T08:20:13.184Z,8.47
2023-08-17T08:22:41.277Z,9.10
2023-08-17T08:25:09.854Z,8.23
2023-08-17T08:27:38.413Z,7.73
2023-08-17T08:30:08.027Z,7.47
2023-08-17T08:32:37.455Z,8.33
2023-08-17T08:35:06.138Z,7.73
2023-08-17T08:37:34.701Z,8.27
2023-08-17T08:40:02.753Z,6.83
2023-08-17T08:42:30.967Z,9.67
2023-08-17T08:44:59.095Z,6.03
2023-08-17T08:47:29.045Z,9.83
2023-08-17T08:50:03.627Z,14.73
2023-08-17T08:52:36.789Z,8.20
2023-08-17T08:55:18.060Z,5.77
2023-08-17T08:57:51.689Z,9.00
2023-08-17T09:00:21.235Z,10.77
2023-08-17T09:02:50.372Z,7.90
2023-08-17T09:05:20.767Z,7.10
2023-08-17T09:07:51.012Z,12.77
2023-08-17T09:10:19.476Z,9.47
2023-08-17T09:12:50.248Z,9.43
2023-08-17T09:15:18.769Z,8.47
2023-08-17T09:17:49.008Z,10.80
2023-08-17T09:23:16.398Z,10.47
2023-08-17T09:25:46.748Z,9.93
2023-08-17T09:28:16.851Z,11.53
2023-08-17T09:30:59.221Z,11.90
2023-08-17T09:33:29.013Z,8.90
2023-08-17T09:36:00.532Z,10.33
2023-08-17T09:38:29.323Z,12.83
2023-08-17T09:40:58.990Z,10.13
2023-08-17T09:43:29.433Z,7.90
2023-08-17T09:45:57.954Z,8.30
2023-08-17T09:48:32.992Z,8.40
2023-08-17T09:51:03.579Z,14.07
2023-08-17T09:53:36.277Z,13.13
2023-08-17T09:56:06.083Z,8.63
2023-08-17T09:58:34.186Z,7.67
2023-08-17T10:01:05.833Z,9.30
2023-08-17T10:03:36.085Z,7.53
2023-08-17T10:06:07.745Z,7.70
2023-08-17T10:08:41.743Z,11.23
2023-08-17T10:11:10.857Z,7.53
2023-08-17T10:13:44.948Z,7.40
2023-08-17T10:16:30.215Z,14.53
2023-08-17T10:19:07.258Z,8.33
2023-08-17T10:21:42.279Z,8.30
2023-08-17T10:24:11.075Z,6.20
2023-08-17T10:26:39.417Z,7.57
2023-08-17T10:29:15.226Z,6.33
2023-08-17T10:31:47.648Z,7.10
2023-08-17T10:34:16.693Z,8.50
2023-08-17T10:36:48.422Z,9.33
2023-08-17T10:39:29.903Z,7.63
2023-08-17T10:41:59.438Z,9.00
2023-08-17T10:44:45.304Z,8.77
2023-08-17T10:47:24.132Z,7.10
2023-08-17T10:49:53.191Z,7.50
2023-08-17T10:52:33.767Z,6.70
2023-08-17T10:55:03.226Z,10.87
2023-08-17T10:57:36.276Z,8.30
2023-08-17T11:00:20.735Z,6.80
2023-08-17T11:02:55.464Z,8.90
2023-08-17T11:05:40.727Z,6.27
2023-08-17T11:08:12.082Z,8.70
2023-08-17T11:10:40.418Z,9.23
2023-08-17T11:13:08.622Z,8.77
2023-08-17T11:15:43.372Z,7.60
2023-08-17T11:18:12.459Z,8.70
2023-08-17T11:20:42.779Z,8.30
2023-08-17T11:23:12.655Z,7.60
2023-08-17T11:25:41.048Z,8.10
2023-08-17T11:28:10.798Z,6.63
2023-08-17T11:30:40.182Z,6.17
2023-08-17T11:33:09.735Z,6.50
2023-08-17T11:35:38.335Z,8.53
2023-08-17T11:38:09.080Z,8.20
2023-08-17T11:40:38.829Z,8.77
2023-08-17T11:43:07.656Z,7.07
2023-08-17T11:45:36.261Z,6.53
2023-08-17T11:48:05.407Z,5.43
2023-08-17T11:50:33.814Z,7.70
2023-08-17T11:53:02.542Z,7.17
2023-08-17T11:55:31.023Z,5.97
2023-08-17T11:58:00.413Z,7.00
2023-08-17T12:00:28.551Z,6.00
2023-08-17T12:02:56.773Z,5.93
2023-08-17T12:05:28.111Z,6.33
2023-08-17T12:07:56.465Z,5.83
2023-08-17T12:10:24.659Z,6.30
2023-08-17T12:12:53.151Z,6.30
2023-08-17T12:15:22.737Z,6.00
2023-08-17T12:17:53.854Z,6.47
2023-08-17T12:20:23.005Z,6.73
2023-08-17T12:22:51.092Z,7.17
2023-08-17T12:25:23.940Z,5.83
2023-08-17T12:27:52.108Z,7.50
2023-08-17T12:30:33.442Z,7.00
2023-08-17T12:33:01.545Z,7.47
2023-08-17T12:35:29.657Z,7.23
2023-08-17T12:37:57.737Z,8.50
2023-08-17T12:40:25.961Z,12.10
2023-08-17T12:42:53.969Z,6.43
2023-08-17T12:45:22.025Z,12.93
2023-08-17T12:47:51.411Z,8.97
2023-08-17T12:50:19.530Z,7.20
2023-08-17T12:52:47.757Z,7.37
2023-08-17T12:55:16.116Z,9.10
2023-08-17T12:57:44.177Z,6.77
2023-08-17T13:00:13.367Z,6.80
2023-08-17T13:02:41.504Z,9.30
2023-08-17T13:05:13.434Z,6.63
2023-08-17T13:07:41.548Z,9.60
2023-08-17T13:10:09.932Z,15.00
2023-08-17T13:12:37.960Z,7.17
2023-08-17T13:15:07.168Z,9.80
2023-08-17T13:17:35.319Z,7.90
2023-08-17T13:20:04.937Z,9.90
2023-08-17T13:22:34.499Z,10.50
2023-08-17T13:25:02.616Z,9.10
2023-08-17T13:27:30.680Z,11.20
2023-08-17T13:29:59.866Z,6.00
2023-08-17T13:32:28.379Z,9.20
2023-08-17T13:34:56.775Z,9.93
2023-08-17T13:37:24.810Z,8.17
2023-08-17T13:39:54.267Z,10.63
2023-08-17T13:42:22.586Z,7.60
2023-08-17T13:44:50.620Z,11.70
2023-08-17T13:47:18.828Z,8.50
2023-08-17T13:49:46.914Z,12.40
2023-08-17T13:52:14.987Z,11.70
2023-08-17T13:54:43.082Z,11.77
2023-08-17T13:57:12.588Z,11.00
2023-08-17T13:59:40.861Z,8.17
2023-08-17T14:02:09.645Z,10.70
2023-08-17T14:04:37.768Z,8.90
2023-08-17T14:07:06.012Z,8.53
2023-08-17T14:09:34.098Z,7.70
2023-08-17T14:12:02.818Z,10.70
2023-08-17T14:14:32.437Z,10.27
2023-08-17T14:17:00.578Z,7.30
2023-08-17T14:19:28.943Z,13.73
2023-08-17T14:21:57.158Z,10.27
2023-08-17T14:24:25.270Z,9.60
2023-08-17T14:26:53.310Z,7.60
2023-08-17T14:29:21.338Z,10.13
2023-08-17T14:31:56.239Z,8.80
2023-08-17T14:34:24.567Z,13.50
2023-08-17T14:36:52.679Z,9.73
2023-08-17T14:39:20.765Z,9.50
2023-08-17T14:41:48.873Z,8.60
2023-08-17T14:44:18.364Z,7.87
2023-08-17T14:46:46.462Z,8.43
2023-08-17T14:49:15.925Z,11.40
2023-08-17T14:51:44.964Z,7.53
2023-08-17T14:54:13.005Z,6.17
2023-08-17T14:56:41.376Z,5.73
2023-08-17T14:59:11.055Z,6.97
2023-08-17T15:01:39.436Z,10.77
2023-08-17T15:04:07.815Z,8.63
2023-08-17T15:09:10.310Z,8.07
2023-08-17T15:11:38.471Z,10.73
2023-08-17T15:14:06.626Z,6.23
2023-08-17T15:16:34.691Z,8.20
2023-08-17T15:19:02.736Z,9.10
2023-08-17T15:21:30.725Z,7.67
2023-08-17T15:24:00.762Z,9.73
2023-08-17T15:26:30.132Z,14.80
2023-08-17T15:28:58.393Z,8.30
2023-08-17T15:31:26.576Z,6.77
2023-08-17T15:33:54.649Z,9.10
2023-08-17T15:36:27.398Z,6.80
2023-08-17T15:38:55.496Z,7.77
2023-08-17T15:41:24.962Z,7.30
2023-08-17T15:43:53.023Z,7.67
2023-08-17T15:46:21.039Z,8.63
2023-08-17T15:48:49.778Z,14.20
2023-08-17T15:51:17.851Z,9.77
2023-08-17T15:53:45.847Z,10.40
2023-08-17T15:56:13.913Z,10.80
2023-08-17T15:58:44.253Z,8.80
2023-08-17T16:01:12.331Z,15.70
2023-08-17T16:03:40.424Z,9.67
2023-08-17T16:06:08.670Z,11.13
2023-08-17T16:08:48.025Z,11.90
2023-08-17T16:11:17.162Z,11.67
2023-08-17T16:13:49.502Z,12.87
2023-08-17T16:16:17.635Z,10.73
2023-08-17T16:18:45.690Z,9.70
2023-08-17T16:21:15.094Z,10.80
2023-08-17T16:23:44.516Z,10.70
2023-08-17T16:26:12.574Z,9.70
2023-08-17T16:28:40.639Z,9.43
2023-08-17T16:31:10.317Z,10.10
2023-08-17T16:33:41.321Z,10.70
2023-08-17T16:36:09.576Z,10.47
2023-08-17T16:38:37.873Z,10.90
2023-08-17T16:41:06.159Z,12.57
2023-08-17T16:43:34.252Z,12.97
2023-08-17T16:46:02.319Z,10.17
2023-08-17T16:48:31.882Z,10.87
2023-08-17T16:50:59.956Z,10.60
2023-08-17T16:53:27.985Z,11.93
2023-08-17T16:55:56.077Z,12.80
2023-08-17T16:58:24.118Z,10.30
2023-08-17T17:00:52.694Z,9.70
2023-08-17T17:03:20.708Z,9.87
2023-08-17T17:05:50.140Z,14.10
2023-08-17T17:08:18.200Z,11.57
2023-08-17T17:10:46.218Z,13.93
2023-08-17T17:13:14.304Z,7.90
2023-08-17T17:15:42.420Z,13.77
2023-08-17T17:18:10.631Z,11.83
2023-08-17T17:20:38.744Z,10.80
2023-08-17T17:23:08.145Z,10.00
2023-08-17T17:25:36.151Z,11.27
2023-08-17T17:28:04.386Z,14.03
2023-08-17T17:30:32.398Z,13.10
2023-08-17T17:33:00.443Z,14.90
2023-08-17T17:35:28.492Z,22.40
2023-08-17T17:37:56.527Z,20.33
2023-08-17T17:40:25.920Z,14.53
2023-08-17T17:42:54.007Z,12.23
2023-08-17T17:45:22.051Z,11.97
2023-08-17T17:47:50.098Z,11.70
2023-08-17T17:50:18.217Z,9.60
2023-08-17T17:52:48.562Z,11.47
2023-08-17T17:55:16.961Z,11.23
2023-08-17T17:57:47.104Z,9.57
2023-08-17T18:00:16.127Z,7.80
2023-08-17T18:02:44.387Z,14.70
2023-08-17T18:05:12.941Z,12.30
2023-08-17T18:07:41.137Z,9.80
2023-08-17T18:10:10.049Z,10.90
2023-08-17T18:12:38.139Z,19.43
2023-08-17T18:15:08.739Z,12.50
2023-08-17T18:17:36.871Z,11.53
2023-08-17T18:20:05.704Z,11.70
2023-08-17T18:22:33.835Z,12.90
2023-08-17T18:25:01.907Z,14.33
2023-08-17T18:27:31.940Z,11.77
2023-08-17T18:30:00.322Z,10.83
2023-08-17T18:32:29.765Z,11.87
2023-08-17T18:34:57.845Z,9.90
2023-08-17T18:37:25.984Z,14.80
2023-08-17T18:39:54.305Z,13.10
2023-08-17T18:42:22.291Z,16.30
2023-08-17T18:44:50.332Z,20.27
2023-08-17T18:47:18.374Z,11.50
2023-08-17T18:49:47.727Z,12.80
2023-08-17T18:52:15.846Z,18.70
2023-08-17T18:54:59.484Z,18.53
2023-08-17T18:57:27.619Z,15.57
2023-08-17T18:59:55.879Z,15.40
2023-08-17T19:02:24.248Z,13.70
2023-08-17T19:04:53.696Z,17.87
2023-08-17T19:07:21.697Z,15.90
2023-08-17T19:09:49.744Z,17.17
2023-08-17T19:12:18.983Z,19.20
2023-08-17T19:14:47.832Z,18.13
2023-08-17T19:17:15.926Z,15.00
2023-08-17T19:19:44.077Z,18.10
2023-08-17T19:22:13.534Z,13.17
2023-08-17T19:24:41.628Z,17.33
2023-08-17T19:27:09.656Z,22.07
2023-08-17T19:29:37.663Z,17.10
2023-08-17T19:32:05.988Z,23.80
2023-08-17T19:34:34.034Z,15.30
2023-08-17T19:37:02.130Z,13.97
2023-08-17T19:39:31.529Z,14.43
2023-08-17T19:41:59.557Z,19.20
2023-08-17T19:44:28.413Z,27.47
2023-08-17T19:46:56.581Z,17.60
2023-08-17T19:49:24.607Z,21.40
2023-08-17T19:51:52.623Z,16.00
2023-08-17T19:54:20.804Z,16.27
2023-08-17T19:56:50.555Z,19.63
2023-08-17T19:59:19.178Z,13.70
2023-08-17T20:01:49.620Z,21.50
2023-08-17T20:04:17.732Z,12.20
2023-08-17T20:06:46.914Z,16.20
2023-08-17T20:09:15.549Z,19.80
2023-08-17T20:11:43.621Z,16.47
2023-08-17T20:14:15.303Z,22.90
2023-08-17T20:16:44.888Z,18.50
2023-08-17T20:19:13.357Z,18.30
2023-08-17T20:21:41.484Z,17.27
2023-08-17T20:24:10.804Z,16.77
2023-08-17T20:26:39.433Z,22.73
2023-08-17T20:29:07.480Z,21.50
2023-08-17T20:31:37.114Z,25.43
2023-08-17T20:34:05.308Z,19.47
2023-08-17T20:36:33.403Z,17.87
2023-08-17T20:39:08.473Z,19.17
2023-08-17T20:41:36.971Z,17.57
2023-08-17T20:44:05.428Z,19.43
2023-08-17T20:46:33.466Z,17.23
2023-08-17T20:49:05.481Z,12.80
2023-08-17T20:51:33.597Z,15.07
2023-08-17T20:54:01.735Z,15.17
2023-08-17T20:56:30.118Z,16.40
2023-08-17T20:58:58.195Z,14.87
2023-08-17T21:01:26.852Z,37.40
2023-08-17T21:03:54.995Z,12.83
2023-08-17T21:06:24.728Z,15.90
2023-08-17T21:08:52.774Z,18.10
2023-08-17T21:11:20.983Z,14.60
2023-08-17T21:13:49.085Z,12.80
2023-08-17T21:16:17.125Z,20.20
2023-08-17T21:18:45.194Z,12.87
2023-08-17T21:21:13.248Z,14.23
2023-08-17T21:23:42.949Z,14.90
2023-08-17T21:26:11.530Z,13.40
2023-08-17T21:28:39.553Z,11.73
2023-08-17T21:31:07.827Z,15.80
2023-08-17T21:33:35.897Z,13.30
2023-08-17T21:36:04.632Z,13.83
2023-08-17T21:38:32.714Z,21.83
2023-08-17T21:41:02.594Z,19.93
2023-08-17T21:43:31.331Z,14.33
2023-08-17T21:46:00.127Z,18.07
2023-08-17T21:48:28.407Z,21.03
2023-08-17T21:50:56.603Z,15.90
2023-08-17T21:53:24.642Z,13.43
2023-08-17T21:55:53.637Z,21.23
2023-08-17T21:58:22.999Z,24.33
2023-08-17T22:00:52.615Z,16.73
2023-08-17T22:03:20.799Z,13.00
